createdAt,value
2018-01-04T00:01:21.961Z,14.70
2018-01-04T00:03:51.409Z,10.80
2018-01-04T00:06:20.857Z,6.93
2018-01-04T00:08:50.341Z,4.97
2018-01-04T00:11:19.895Z,6.97
2018-01-04T00:13:49.346Z,7.33
2018-01-04T00:16:20.257Z,5.07
2018-01-04T00:18:49.726Z,9.63
2018-01-04T00:21:19.153Z,5.50
2018-01-04T00:23:48.602Z,9.20
2018-01-04T00:26:18.161Z,4.77
2018-01-04T00:28:47.606Z,6.60
2018-01-04T00:31:17.034Z,6.23
2018-01-04T00:33:46.494Z,7.67
2018-01-04T00:36:16.082Z,5.60
2018-01-04T00:38:45.544Z,7.07
2018-01-04T00:41:14.973Z,4.77
2018-01-04T00:43:44.434Z,9.17
2018-01-04T00:46:13.899Z,10.67
2018-01-04T00:48:43.331Z,13.13
2018-01-04T00:51:12.772Z,5.83
2018-01-04T00:53:42.221Z,5.60
2018-01-04T00:56:11.678Z,8.60
2018-01-04T00:58:41.104Z,6.90
2018-01-04T01:01:10.549Z,7.33
2018-01-04T01:03:39.992Z,2.40
2018-01-04T01:06:09.482Z,7.30
2018-01-04T01:08:38.918Z,5.90
2018-01-04T01:11:08.358Z,6.33
2018-01-04T01:13:37.804Z,6.50
2018-01-04T01:16:07.256Z,5.80
2018-01-04T01:18:36.764Z,8.27
2018-01-04T01:21:06.195Z,8.30
2018-01-04T01:23:35.658Z,7.80
2018-01-04T01:26:05.086Z,16.23
2018-01-04T01:28:34.561Z,7.00
2018-01-04T01:31:03.994Z,9.87
2018-01-04T01:33:33.446Z,10.43
2018-01-04T01:36:02.875Z,4.40
2018-01-04T01:38:32.352Z,14.03
2018-01-04T01:41:01.810Z,9.73
2018-01-04T01:43:31.272Z,10.17
2018-01-04T01:46:00.702Z,7.63
2018-01-04T01:48:30.154Z,13.33
2018-01-04T01:50:59.593Z,12.87
2018-01-04T01:53:29.072Z,11.83
2018-01-04T01:55:58.545Z,8.60
2018-01-04T01:58:28.001Z,12.67
2018-01-04T02:00:57.449Z,11.63
2018-01-04T02:03:26.754Z,7.70
2018-01-04T02:05:56.202Z,15.53
2018-01-04T02:08:25.687Z,11.53
2018-01-04T02:10:55.283Z,5.83
2018-01-04T02:13:24.914Z,9.60
2018-01-04T02:15:54.373Z,11.57
2018-01-04T02:18:29.348Z,5.10
2018-01-04T02:21:04.584Z,3.73
2018-01-04T02:23:52.539Z,4.20
2018-01-04T02:26:27.638Z,4.33
2018-01-04T02:29:00.505Z,7.87
2018-01-04T02:31:35.598Z,4.43
2018-01-04T02:34:10.562Z,6.90
2018-01-04T02:36:45.726Z,5.37
2018-01-04T02:39:20.722Z,11.03
2018-01-04T02:41:55.934Z,9.10
2018-01-04T02:44:31.030Z,9.93
2018-01-04T02:47:00.676Z,4.33
2018-01-04T02:49:30.111Z,7.57
2018-01-04T02:51:59.535Z,13.50
2018-01-04T02:54:29.751Z,7.93
2018-01-04T02:56:59.173Z,12.40
2018-01-04T02:59:28.657Z,8.80
2018-01-04T03:01:58.106Z,13.57
2018-01-04T03:04:27.562Z,5.13
2018-01-04T03:06:57.030Z,9.03
2018-01-04T03:09:26.458Z,17.00
2018-01-04T03:11:55.901Z,9.03
2018-01-04T03:14:25.336Z,9.93
2018-01-04T03:16:54.781Z,12.80
2018-01-04T03:19:24.215Z,9.67
2018-01-04T03:21:59.203Z,10.20
2018-01-04T03:24:34.322Z,9.83
2018-01-04T03:27:09.433Z,17.80
2018-01-04T03:29:38.756Z,5.47
2018-01-04T03:32:13.897Z,12.53
2018-01-04T03:34:49.032Z,7.90
2018-01-04T03:37:23.974Z,10.00
2018-01-04T03:39:59.114Z,12.57
2018-01-04T03:42:34.445Z,10.37
2018-01-04T03:45:09.462Z,13.13
2018-01-04T03:47:44.481Z,7.27
2018-01-04T03:50:19.658Z,7.20
2018-01-04T03:52:48.923Z,11.70
2018-01-04T03:55:23.966Z,5.13
2018-01-04T03:57:54.186Z,7.80
2018-01-04T04:00:29.282Z,7.70
2018-01-04T04:02:58.767Z,5.57
2018-01-04T04:05:33.894Z,5.40
2018-01-04T04:08:09.218Z,5.67
2018-01-04T04:10:38.673Z,7.90
2018-01-04T04:13:08.149Z,3.00
2018-01-04T04:15:37.627Z,3.70
2018-01-04T04:18:07.135Z,2.30
2018-01-04T04:20:36.561Z,3.50
2018-01-04T04:23:06.286Z,1.17
2018-01-04T04:25:35.718Z,1.00
2018-01-04T04:28:05.295Z,1.40
2018-01-04T04:30:35.010Z,1.67
2018-01-04T04:33:04.456Z,1.07
2018-01-04T04:35:33.878Z,1.30
2018-01-04T04:38:03.322Z,6.27
2018-01-04T04:40:32.782Z,2.83
2018-01-04T04:43:02.206Z,3.20
2018-01-04T04:45:31.658Z,0.87
2018-01-04T04:48:01.097Z,1.53
2018-01-04T04:50:30.597Z,0.93
2018-01-04T04:53:00.044Z,2.33
2018-01-04T04:55:29.490Z,1.07
2018-01-04T04:57:58.930Z,1.47
2018-01-04T05:00:28.435Z,1.47
2018-01-04T05:02:57.885Z,1.00
2018-01-04T05:05:27.333Z,0.87
2018-01-04T05:07:56.767Z,5.47
2018-01-04T05:10:26.277Z,1.00
2018-01-04T05:12:55.725Z,1.20
2018-01-04T05:15:25.165Z,3.00
2018-01-04T05:17:54.613Z,1.03
2018-01-04T05:20:24.110Z,1.40
2018-01-04T05:22:53.562Z,0.60
2018-01-04T05:25:23.024Z,1.33
2018-01-04T05:27:52.453Z,0.60
2018-01-04T05:30:21.940Z,0.83
2018-01-04T05:32:51.381Z,0.80
2018-01-04T05:35:20.847Z,0.87
2018-01-04T05:37:50.430Z,3.17
2018-01-04T05:40:19.864Z,4.53
2018-01-04T05:42:49.368Z,1.97
2018-01-04T05:45:18.821Z,2.47
2018-01-04T05:47:48.354Z,1.63
2018-01-04T05:50:17.830Z,1.03
2018-01-04T05:52:47.593Z,1.17
2018-01-04T05:55:17.023Z,1.33
2018-01-04T05:57:46.460Z,0.70
2018-01-04T06:00:15.913Z,1.57
2018-01-04T06:02:45.339Z,0.90
2018-01-04T06:05:14.789Z,1.17
2018-01-04T06:07:44.329Z,0.63
2018-01-04T06:10:13.782Z,2.73
2018-01-04T06:12:43.214Z,0.70
2018-01-04T06:15:12.665Z,0.50
2018-01-04T06:17:42.089Z,0.77
2018-01-04T06:20:11.655Z,0.60
2018-01-04T06:22:41.092Z,0.60
2018-01-04T06:25:10.550Z,2.00
2018-01-04T06:27:39.997Z,0.70
2018-01-04T06:30:09.443Z,0.70
2018-01-04T06:32:38.886Z,1.30
2018-01-04T06:35:08.393Z,0.80
2018-01-04T06:37:37.858Z,2.37
2018-01-04T06:40:07.430Z,4.80
2018-01-04T06:42:36.873Z,0.90
2018-01-04T06:45:06.311Z,0.90
2018-01-04T06:47:35.780Z,1.40
2018-01-04T06:50:05.215Z,1.40
2018-01-04T06:52:34.694Z,0.80
2018-01-04T06:55:04.128Z,1.37
2018-01-04T06:57:33.559Z,1.53
2018-01-04T07:00:03.022Z,1.87
2018-01-04T07:02:32.450Z,0.50
2018-01-04T07:05:01.907Z,0.60
2018-01-04T07:07:31.362Z,1.43
2018-01-04T07:10:00.811Z,0.70
2018-01-04T07:12:30.246Z,0.70
2018-01-04T07:14:59.697Z,1.27
2018-01-04T07:17:29.134Z,0.63
2018-01-04T07:19:58.588Z,0.70
2018-01-04T07:22:28.105Z,0.53
2018-01-04T07:24:57.554Z,2.53
2018-01-04T07:27:27.003Z,0.40
2018-01-04T07:29:56.452Z,0.60
2018-01-04T07:32:25.889Z,0.50
2018-01-04T07:34:55.497Z,0.60
2018-01-04T07:37:25.157Z,1.47
2018-01-04T07:39:54.597Z,0.50
2018-01-04T07:42:24.041Z,0.50
2018-01-04T07:44:53.563Z,0.70
2018-01-04T07:47:23.017Z,1.07
2018-01-04T07:49:52.470Z,0.70
2018-01-04T07:52:22.037Z,0.60
2018-01-04T07:54:51.481Z,0.50
2018-01-04T07:57:21.005Z,0.50
2018-01-04T07:59:50.429Z,4.37
2018-01-04T08:02:19.882Z,1.77
2018-01-04T08:04:49.418Z,0.83
2018-01-04T08:07:18.892Z,2.33
2018-01-04T08:09:48.338Z,1.27
2018-01-04T08:12:17.766Z,0.70
2018-01-04T08:14:47.221Z,0.67
2018-01-04T08:17:16.675Z,1.20
2018-01-04T08:19:46.126Z,1.23
2018-01-04T08:22:15.573Z,0.60
2018-01-04T08:24:45.020Z,0.90
2018-01-04T08:27:14.458Z,0.70
2018-01-04T08:29:43.957Z,3.33
2018-01-04T08:32:13.426Z,0.70
2018-01-04T08:34:42.892Z,1.43
2018-01-04T08:37:12.381Z,1.57
2018-01-04T08:39:41.914Z,1.37
2018-01-04T08:42:11.377Z,0.97
2018-01-04T08:44:40.918Z,1.33
2018-01-04T08:47:10.356Z,0.90
2018-01-04T08:49:39.818Z,0.70
2018-01-04T08:52:09.256Z,3.90
2018-01-04T08:54:38.826Z,1.10
2018-01-04T08:57:08.301Z,2.80
2018-01-04T08:59:37.780Z,2.00
2018-01-04T09:02:07.218Z,2.20
2018-01-04T09:04:36.657Z,2.70
2018-01-04T09:07:06.098Z,1.50
2018-01-04T09:09:35.526Z,3.70
2018-01-04T09:12:04.966Z,2.00
2018-01-04T09:14:34.402Z,3.00
2018-01-04T09:17:03.842Z,1.20
2018-01-04T09:19:33.270Z,1.13
2018-01-04T09:22:02.736Z,1.63
2018-01-04T09:24:32.178Z,1.47
2018-01-04T09:27:01.630Z,1.80
2018-01-04T09:29:30.977Z,1.43
2018-01-04T09:32:00.417Z,1.83
2018-01-04T09:34:29.858Z,2.27
2018-01-04T09:36:59.297Z,1.67
2018-01-04T09:39:28.746Z,2.40
2018-01-04T09:41:58.186Z,3.83
2018-01-04T09:44:27.649Z,2.00
2018-01-04T09:46:57.087Z,1.90
2018-01-04T09:49:26.567Z,4.87
2018-01-04T09:51:56.144Z,1.50
2018-01-04T09:54:25.773Z,2.50
2018-01-04T09:56:55.217Z,3.23
2018-01-04T09:59:24.688Z,5.00
2018-01-04T10:01:54.147Z,2.60
2018-01-04T10:04:23.577Z,4.27
2018-01-04T10:06:53.113Z,2.80
2018-01-04T10:09:22.546Z,1.20
2018-01-04T10:11:51.998Z,3.20
2018-01-04T10:14:21.247Z,3.53
2018-01-04T10:16:50.698Z,2.90
2018-01-04T10:19:20.134Z,1.80
2018-01-04T10:21:49.728Z,1.90
2018-01-04T10:24:19.154Z,3.60
2018-01-04T10:26:48.762Z,3.13
2018-01-04T10:29:18.228Z,2.80
2018-01-04T10:31:47.970Z,2.50
2018-01-04T10:34:17.438Z,2.90
2018-01-04T10:36:46.938Z,5.93
2018-01-04T10:39:16.374Z,2.13
2018-01-04T10:41:45.833Z,3.33
2018-01-04T10:44:15.321Z,3.20
2018-01-04T10:46:44.761Z,4.10
2018-01-04T10:49:14.234Z,2.43
2018-01-04T10:51:43.664Z,1.70
2018-01-04T10:54:13.173Z,1.60
2018-01-04T10:56:42.622Z,5.07
2018-01-04T10:59:12.064Z,2.43
2018-01-04T11:01:41.338Z,2.20
2018-01-04T11:04:10.765Z,2.27
2018-01-04T11:06:40.224Z,1.60
2018-01-04T11:09:09.662Z,1.57
2018-01-04T11:11:39.111Z,1.50
2018-01-04T11:14:08.542Z,1.43
2018-01-04T11:16:38.006Z,3.30
2018-01-04T11:19:07.427Z,2.63
2018-01-04T11:21:36.937Z,3.30
2018-01-04T11:24:06.393Z,1.70
2018-01-04T11:26:35.836Z,1.40
2018-01-04T11:29:05.290Z,2.00
2018-01-04T11:31:34.739Z,3.00
2018-01-04T11:34:04.186Z,2.00
2018-01-04T11:36:33.617Z,1.83
2018-01-04T11:39:03.105Z,1.57
2018-01-04T11:41:32.551Z,1.57
2018-01-04T11:44:02.005Z,1.27
2018-01-04T11:46:31.454Z,1.80
2018-01-04T11:49:00.934Z,1.50
2018-01-04T11:51:30.390Z,2.10
2018-01-04T11:53:59.844Z,1.00
2018-01-04T11:56:29.321Z,2.00
2018-01-04T11:58:58.782Z,2.23
2018-01-04T12:01:28.245Z,2.57
2018-01-04T12:03:57.717Z,4.40
2018-01-04T12:06:27.162Z,3.30
2018-01-04T12:08:56.636Z,3.00
2018-01-04T12:11:26.099Z,2.13
2018-01-04T12:13:55.542Z,2.03
2018-01-04T12:16:25.061Z,2.50
2018-01-04T12:18:54.522Z,4.03
2018-01-04T12:21:23.989Z,1.53
2018-01-04T12:23:53.449Z,1.50
2018-01-04T12:26:22.905Z,5.23
2018-01-04T12:28:52.338Z,1.70
2018-01-04T12:31:21.780Z,1.60
2018-01-04T12:33:51.226Z,3.33
2018-01-04T12:36:20.670Z,4.10
2018-01-04T12:38:50.115Z,1.90
2018-01-04T12:41:19.601Z,1.60
2018-01-04T12:43:49.049Z,1.60
2018-01-04T12:46:18.504Z,2.40
2018-01-04T12:48:47.937Z,2.17
2018-01-04T12:51:17.410Z,2.50
2018-01-04T12:53:46.861Z,1.80
2018-01-04T12:56:16.310Z,1.87
2018-01-04T12:58:45.743Z,1.67
2018-01-04T13:01:15.234Z,1.80
2018-01-04T13:03:44.671Z,1.80
2018-01-04T13:06:14.198Z,2.40
2018-01-04T13:08:43.638Z,5.70
2018-01-04T13:11:13.074Z,2.30
2018-01-04T13:13:42.525Z,2.10
2018-01-04T13:16:11.966Z,1.80
2018-01-04T13:18:41.453Z,1.57
2018-01-04T13:21:10.902Z,1.63
2018-01-04T13:23:40.350Z,2.50
2018-01-04T13:26:09.791Z,2.30
2018-01-04T13:28:39.379Z,2.17
2018-01-04T13:31:08.842Z,2.83
2018-01-04T13:33:38.298Z,1.70
2018-01-04T13:36:07.733Z,3.17
2018-01-04T13:38:37.181Z,1.70
2018-01-04T13:41:06.622Z,2.07
2018-01-04T13:43:36.190Z,2.33
2018-01-04T13:46:05.638Z,2.43
2018-01-04T13:48:35.091Z,1.83
2018-01-04T13:51:04.555Z,2.13
2018-01-04T13:53:34.123Z,2.87
2018-01-04T13:56:03.633Z,2.10
2018-01-04T13:58:33.307Z,2.60
2018-01-04T14:01:02.742Z,3.37
2018-01-04T14:03:32.310Z,4.43
2018-01-04T14:06:01.921Z,4.10
2018-01-04T14:08:31.400Z,2.57
2018-01-04T14:11:00.845Z,3.43
2018-01-04T14:13:30.273Z,2.40
2018-01-04T14:15:59.852Z,3.50
2018-01-04T14:18:29.342Z,2.17
2018-01-04T14:20:58.783Z,2.87
2018-01-04T14:23:28.217Z,3.00
2018-01-04T14:25:57.696Z,4.63
2018-01-04T14:28:27.130Z,2.43
2018-01-04T14:30:56.593Z,3.57
2018-01-04T14:33:26.022Z,3.17
2018-01-04T14:35:55.527Z,4.33
2018-01-04T14:38:25.057Z,1.90
2018-01-04T14:40:54.605Z,2.50
2018-01-04T14:43:24.080Z,4.23
2018-01-04T14:45:53.554Z,3.20
2018-01-04T14:48:22.998Z,2.90
2018-01-04T14:50:52.446Z,3.03
2018-01-04T14:53:22.038Z,2.30
2018-01-04T14:55:51.494Z,2.33
2018-01-04T14:58:20.942Z,5.07
2018-01-04T15:00:50.380Z,1.77
2018-01-04T15:03:19.862Z,1.73
2018-01-04T15:05:49.342Z,2.00
2018-01-04T15:08:18.798Z,2.40
2018-01-04T15:10:48.228Z,4.60
2018-01-04T15:13:17.774Z,1.87
2018-01-04T15:15:47.214Z,1.73
2018-01-04T15:18:16.722Z,3.27
2018-01-04T15:20:46.173Z,1.30
2018-01-04T15:23:15.621Z,2.77
2018-01-04T15:25:45.073Z,2.20
2018-01-04T15:28:14.519Z,1.63
2018-01-04T15:30:43.996Z,3.33
2018-01-04T15:33:13.430Z,1.70
2018-01-04T15:35:42.890Z,1.67
2018-01-04T15:38:12.413Z,2.17
2018-01-04T15:40:41.886Z,2.03
2018-01-04T15:43:11.325Z,6.20
2018-01-04T15:45:40.769Z,3.00
2018-01-04T15:48:10.202Z,3.63
2018-01-04T15:50:39.680Z,4.20
2018-01-04T15:53:09.112Z,2.17
2018-01-04T15:55:38.546Z,2.93
2018-01-04T15:58:08.016Z,5.23
2018-01-04T16:00:37.478Z,5.53
2018-01-04T16:03:06.927Z,2.77
2018-01-04T16:05:36.395Z,5.80
2018-01-04T16:08:05.875Z,2.47
2018-01-04T16:10:35.330Z,3.70
2018-01-04T16:13:04.790Z,2.67
2018-01-04T16:15:34.225Z,2.60
2018-01-04T16:18:03.817Z,2.80
2018-01-04T16:20:33.266Z,5.40
2018-01-04T16:23:02.722Z,3.50
2018-01-04T16:25:32.164Z,3.00
2018-01-04T16:28:01.644Z,2.10
2018-01-04T16:30:31.090Z,3.20
2018-01-04T16:33:00.532Z,3.63
2018-01-04T16:35:29.990Z,1.90
2018-01-04T16:37:59.457Z,2.40
2018-01-04T16:40:28.906Z,1.83
2018-01-04T16:42:58.350Z,0.77
2018-01-04T16:45:27.802Z,1.93
2018-01-04T16:47:57.270Z,0.80
2018-01-04T16:50:26.709Z,1.70
2018-01-04T16:52:56.191Z,2.90
2018-01-04T16:55:25.646Z,2.80
2018-01-04T16:57:55.098Z,2.20
2018-01-04T17:00:24.535Z,3.10
2018-01-04T17:02:53.996Z,2.03
2018-01-04T17:05:23.421Z,1.07
2018-01-04T17:07:52.866Z,2.87
2018-01-04T17:10:22.326Z,3.00
2018-01-04T17:12:51.754Z,3.90
2018-01-04T17:15:20.893Z,3.30
2018-01-04T17:17:50.187Z,1.67
2018-01-04T17:20:19.752Z,3.33
2018-01-04T17:22:49.197Z,3.93
2018-01-04T17:25:18.680Z,1.73
2018-01-04T17:27:48.226Z,1.97
2018-01-04T17:30:17.843Z,1.83
2018-01-04T17:32:47.290Z,1.73
2018-01-04T17:35:16.769Z,3.43
2018-01-04T17:37:46.313Z,2.33
2018-01-04T17:40:15.405Z,3.10
2018-01-04T17:42:44.858Z,1.60
2018-01-04T17:45:14.298Z,1.97
2018-01-04T17:47:43.444Z,2.37
2018-01-04T17:50:13.071Z,1.77
2018-01-04T17:52:42.542Z,2.20
2018-01-04T17:55:11.969Z,2.00
2018-01-04T17:57:41.426Z,1.70
2018-01-04T18:00:10.911Z,2.40
2018-01-04T18:02:40.530Z,3.00
2018-01-04T18:05:09.967Z,6.53
2018-01-04T18:07:39.422Z,3.93
2018-01-04T18:10:08.860Z,2.27
2018-01-04T18:12:38.330Z,1.90
2018-01-04T18:15:07.761Z,1.67
2018-01-04T18:17:37.223Z,2.40
2018-01-04T18:20:06.656Z,1.63
2018-01-04T18:22:36.282Z,2.00
2018-01-04T18:25:05.753Z,1.50
2018-01-04T18:27:35.194Z,1.60
2018-01-04T18:30:04.643Z,5.40
2018-01-04T18:32:34.086Z,3.40
2018-01-04T18:35:03.542Z,3.70
2018-01-04T18:37:32.662Z,1.43
2018-01-04T18:40:02.106Z,1.20
2018-01-04T18:42:31.563Z,1.70
2018-01-04T18:45:01.004Z,5.07
2018-01-04T18:47:30.452Z,1.80
2018-01-04T18:49:59.578Z,2.30
2018-01-04T18:52:29.101Z,4.70
2018-01-04T18:54:58.551Z,2.77
2018-01-04T18:57:28.020Z,3.93
2018-01-04T18:59:57.478Z,1.50
2018-01-04T19:02:26.634Z,3.70
2018-01-04T19:04:56.275Z,2.07
2018-01-04T19:07:25.827Z,1.47
2018-01-04T19:09:55.298Z,1.13
2018-01-04T19:12:24.892Z,2.57
2018-01-04T19:14:54.376Z,1.80
2018-01-04T19:17:23.820Z,2.20
2018-01-04T19:19:53.313Z,1.73
2018-01-04T19:22:22.826Z,2.30
2018-01-04T19:24:52.282Z,2.90
2018-01-04T19:27:21.751Z,2.20
2018-01-04T19:29:51.206Z,2.37
2018-01-04T19:32:20.655Z,1.80
2018-01-04T19:34:50.139Z,1.30
2018-01-04T19:37:19.578Z,1.90
2018-01-04T19:39:48.821Z,1.33
2018-01-04T19:42:18.304Z,1.20
2018-01-04T19:44:47.742Z,1.43
2018-01-04T19:47:17.199Z,1.00
2018-01-04T19:49:46.694Z,1.50
2018-01-04T19:52:16.143Z,1.70
2018-01-04T19:54:45.586Z,2.73
2018-01-04T19:57:15.027Z,1.40
2018-01-04T19:59:44.497Z,2.97
2018-01-04T20:02:13.930Z,2.80
2018-01-04T20:04:43.396Z,1.80
2018-01-04T20:07:12.638Z,1.70
2018-01-04T20:09:42.066Z,1.43
2018-01-04T20:12:11.527Z,1.37
2018-01-04T20:14:40.954Z,1.90
2018-01-04T20:17:10.211Z,1.23
2018-01-04T20:19:39.644Z,2.37
2018-01-04T20:22:09.119Z,2.77
2018-01-04T20:24:38.558Z,1.60
2018-01-04T20:27:08.030Z,2.87
2018-01-04T20:29:37.524Z,1.13
2018-01-04T20:32:06.982Z,4.13
2018-01-04T20:34:36.446Z,1.23
2018-01-04T20:37:05.877Z,1.73
2018-01-04T20:39:35.390Z,2.40
2018-01-04T20:42:04.824Z,1.00
2018-01-04T20:44:34.274Z,0.80
2018-01-04T20:47:03.727Z,2.40
2018-01-04T20:49:33.194Z,0.50
2018-01-04T20:52:02.686Z,2.97
2018-01-04T20:54:32.128Z,1.83
2018-01-04T20:57:01.390Z,5.90
2018-01-04T20:59:29.806Z,0.77
2018-01-04T21:01:59.047Z,0.50
2018-01-04T21:04:28.514Z,3.10
2018-01-04T21:06:57.956Z,2.83
2018-01-04T21:09:27.426Z,0.50
2018-01-04T21:11:56.931Z,0.40
2018-01-04T21:14:26.404Z,1.70
2018-01-04T21:16:55.898Z,0.50
2018-01-04T21:19:25.363Z,0.80
2018-01-04T21:21:54.841Z,0.67
2018-01-04T21:24:24.292Z,0.50
2018-01-04T21:26:53.738Z,0.80
2018-01-04T21:29:23.212Z,0.93
2018-01-04T21:31:52.672Z,1.20
2018-01-04T21:34:22.142Z,2.57
2018-01-04T21:36:51.582Z,2.60
2018-01-04T21:39:21.023Z,2.50
2018-01-04T21:41:50.547Z,2.37
2018-01-04T21:44:20.132Z,4.40
2018-01-04T21:46:49.582Z,5.03
2018-01-04T21:49:19.046Z,4.50
2018-01-04T21:51:48.494Z,14.67
2018-01-04T21:54:17.951Z,8.80
2018-01-04T21:56:47.468Z,5.57
2018-01-04T21:59:16.926Z,7.30
2018-01-04T22:01:46.441Z,10.60
2018-01-04T22:04:15.915Z,7.20
2018-01-04T22:06:45.384Z,8.77
2018-01-04T22:09:14.895Z,12.83
2018-01-04T22:11:44.342Z,9.47
2018-01-04T22:14:13.817Z,18.30
2018-01-04T22:16:43.340Z,11.97
2018-01-04T22:19:12.797Z,10.40
2018-01-04T22:21:42.267Z,15.83
2018-01-04T22:24:11.740Z,10.77
2018-01-04T22:26:41.206Z,15.20
2018-01-04T22:29:10.692Z,8.40
2018-01-04T22:31:40.162Z,11.57
2018-01-04T22:34:09.614Z,13.60
2018-01-04T22:36:39.069Z,10.87
2018-01-04T22:39:08.554Z,13.70
2018-01-04T22:41:38.009Z,14.13
2018-01-04T22:44:07.112Z,9.40
2018-01-04T22:46:36.573Z,14.63
2018-01-04T22:49:06.029Z,11.17
2018-01-04T22:51:35.487Z,14.23
2018-01-04T22:54:04.939Z,9.17
2018-01-04T22:56:34.394Z,9.50
2018-01-04T22:59:03.846Z,13.57
2018-01-04T23:01:33.282Z,8.63
2018-01-04T23:04:02.841Z,13.20
2018-01-04T23:06:32.317Z,14.40
2018-01-04T23:09:01.769Z,15.53
2018-01-04T23:11:31.226Z,11.10
2018-01-04T23:14:00.668Z,11.23
2018-01-04T23:16:30.105Z,15.30
2018-01-04T23:18:59.232Z,12.93
2018-01-04T23:21:28.685Z,12.10
2018-01-04T23:23:58.152Z,15.00
2018-01-04T23:26:27.581Z,16.53
2018-01-04T23:28:56.725Z,16.47
2018-01-04T23:31:26.155Z,14.70
2018-01-04T23:33:55.612Z,11.30
2018-01-04T23:36:25.061Z,11.53
2018-01-04T23:38:54.589Z,14.83
2018-01-04T23:41:24.054Z,13.90
2018-01-04T23:43:53.489Z,13.53
2018-01-04T23:46:22.957Z,16.70
2018-01-04T23:48:52.414Z,12.50
2018-01-04T23:51:21.900Z,15.10
2018-01-04T23:53:51.450Z,19.30
2018-01-04T23:56:20.887Z,14.73
2018-01-04T23:58:50.518Z,9.87
